Time;durP1;ratioP1;P1;durP2;ratioP2;P2;SDS_P1;SDS_P2;PMS_P1;PMS_P2;Temp;Humidity;BMP_temperature;BMP_pressure;BME280_temperature;BME280_humidity;BME280_pressure;Samples;Min_cycle;Max_cycle;Signal;HPM_P1;HPM_P2
2021/11/21 00:00:54;;;;;;;5.87;2.13;;;8.00;99.90;;;;;;6262402;22;20193;-84
2021/11/21 00:03:27;;;;;;;4.00;2.23;;;8.00;99.90;;;;;;6264187;23;20163;-85
2021/11/21 00:05:59;;;;;;;5.57;2.33;;;8.00;99.90;;;;;;6259095;23;20291;-85
2021/11/21 00:08:31;;;;;;;4.83;2.47;;;7.90;99.90;;;;;;6265139;22;20172;-86
2021/11/21 00:11:05;;;;;;;2.80;2.10;;;7.90;99.90;;;;;;6264294;23;20201;-85
2021/11/21 00:13:39;;;;;;;3.97;2.30;;;7.80;99.90;;;;;;6261860;23;20293;-86
2021/11/21 00:16:10;;;;;;;6.70;2.53;;;7.70;99.90;;;;;;6256021;22;20271;-85
2021/11/21 00:18:42;;;;;;;4.73;2.13;;;7.70;99.90;;;;;;6248472;22;20512;-84
2021/11/21 00:21:13;;;;;;;5.80;2.10;;;7.60;99.90;;;;;;6263154;22;20169;-83
2021/11/21 00:23:45;;;;;;;7.37;2.40;;;7.50;99.90;;;;;;6259599;23;20172;-84
2021/11/21 00:26:17;;;;;;;4.53;2.57;;;7.50;99.90;;;;;;6264397;23;20181;-85
2021/11/21 00:28:51;;;;;;;3.57;2.40;;;7.50;99.90;;;;;;6256011;23;20182;-85
2021/11/21 00:31:23;;;;;;;5.73;3.13;;;7.50;99.90;;;;;;6265403;23;20255;-85
2021/11/21 00:33:58;;;;;;;7.37;3.00;;;7.30;99.90;;;;;;6271314;22;20181;-83
2021/11/21 00:36:31;;;;;;;3.77;2.13;;;7.20;99.90;;;;;;6268673;22;20209;-86
2021/11/21 00:39:05;;;;;;;5.77;2.77;;;7.10;99.90;;;;;;6264998;23;20171;-83
2021/11/21 00:41:37;;;;;;;4.57;2.57;;;7.10;99.90;;;;;;6262214;23;20230;-86
2021/11/21 00:44:12;;;;;;;8.07;2.37;;;7.10;99.90;;;;;;6264058;23;20191;-84
2021/11/21 00:46:47;;;;;;;6.00;2.70;;;7.00;99.90;;;;;;6269053;23;20168;-84
2021/11/21 00:49:20;;;;;;;5.83;3.03;;;7.00;99.90;;;;;;6270388;22;20168;-85
2021/11/21 00:51:52;;;;;;;8.27;2.93;;;7.00;99.90;;;;;;6267678;22;20247;-85
2021/11/21 00:54:28;;;;;;;4.97;3.27;;;6.90;99.90;;;;;;6270569;22;20191;-85
2021/11/21 00:57:00;;;;;;;3.67;3.13;;;6.90;99.90;;;;;;6269010;22;20215;-85
2021/11/21 00:59:34;;;;;;;4.40;3.30;;;6.90;99.90;;;;;;6268706;22;20239;-84
2021/11/21 01:02:09;;;;;;;6.07;3.50;;;6.80;99.90;;;;;;6269465;23;20223;-84
2021/11/21 01:04:43;;;;;;;4.43;3.30;;;6.70;99.90;;;;;;6268187;22;20167;-84
2021/11/21 01:07:17;;;;;;;5.10;3.00;;;6.70;99.90;;;;;;6268148;22;20231;-85
2021/11/21 01:09:49;;;;;;;7.63;3.53;;;6.60;99.90;;;;;;6271156;23;20194;-83
2021/11/21 01:12:22;;;;;;;5.80;4.00;;;6.60;99.90;;;;;;6271141;22;20223;-84
2021/11/21 01:14:57;;;;;;;7.20;3.70;;;6.50;99.90;;;;;;6268150;22;20263;-84
2021/11/21 01:17:31;;;;;;;6.80;3.57;;;6.50;99.90;;;;;;6267500;22;20210;-84
2021/11/21 01:20:03;;;;;;;6.37;4.63;;;6.40;99.90;;;;;;6271356;22;20233;-84
2021/11/21 01:22:37;;;;;;;12.10;8.97;;;6.30;99.90;;;;;;6267299;22;20174;-86
2021/11/21 01:25:11;;;;;;;20.77;13.87;;;6.20;99.90;;;;;;6263619;22;20171;-86
2021/11/21 01:27:44;;;;;;;20.77;14.43;;;6.00;99.90;;;;;;6268774;22;20632;-85
2021/11/21 01:30:23;;;;;;;12.50;10.23;;;6.00;99.90;;;;;;6268536;23;20179;-84
2021/11/21 01:32:55;;;;;;;11.13;7.07;;;6.00;99.90;;;;;;6270505;22;20179;-84
2021/11/21 01:38:03;;;;;;;6.77;5.93;;;5.90;99.90;;;;;;6265516;22;20203;-86
2021/11/21 01:40:36;;;;;;;3.60;3.30;;;5.70;99.90;;;;;;6272099;22;20183;-85
2021/11/21 01:43:09;;;;;;;4.93;2.90;;;5.70;99.90;;;;;;6263583;22;20211;-83
2021/11/21 01:45:44;;;;;;;4.70;3.10;;;5.60;99.90;;;;;;6273050;22;20191;-84
2021/11/21 01:51:08;;;;;;;3.50;2.40;;;5.50;99.90;;;;;;6273008;22;20190;-84
2021/11/21 01:53:42;;;;;;;3.93;2.53;;;5.50;99.90;;;;;;6238768;22;20220;-85
2021/11/21 01:56:14;;;;;;;4.57;2.80;;;5.30;99.90;;;;;;6242145;23;20161;-83
2021/11/21 01:58:46;;;;;;;6.27;3.57;;;5.30;99.90;;;;;;6242704;23;20248;-84
2021/11/21 02:01:22;;;;;;;5.93;3.20;;;5.20;99.90;;;;;;6242387;23;20191;-84
2021/11/21 02:03:54;;;;;;;4.40;3.00;;;5.20;99.90;;;;;;6231575;22;20221;-84
2021/11/21 02:06:28;;;;;;;7.67;3.90;;;5.10;99.90;;;;;;6231023;22;20216;-84
2021/11/21 02:09:00;;;;;;;7.07;4.70;;;5.10;99.90;;;;;;6272559;22;20180;-84
2021/11/21 02:16:48;;;;;;;9.50;3.87;;;4.90;99.90;;;;;;6266955;23;20214;-85
2021/11/21 02:19:21;;;;;;;7.03;3.67;;;4.90;99.90;;;;;;6291014;22;20181;-85
2021/11/21 02:21:55;;;;;;;8.70;3.93;;;4.90;99.90;;;;;;6265747;23;20195;-85
2021/11/21 02:24:29;;;;;;;4.93;3.53;;;4.90;99.90;;;;;;6265947;23;20228;-85
2021/11/21 02:27:01;;;;;;;5.77;4.03;;;4.90;99.90;;;;;;6263067;23;20191;-85
2021/11/21 02:29:34;;;;;;;7.17;4.13;;;4.90;99.90;;;;;;6265192;22;20199;-85
2021/11/21 02:32:06;;;;;;;9.07;4.60;;;4.80;99.90;;;;;;6265740;23;20163;-84
2021/11/21 02:37:31;;;;;;;7.93;5.93;;;4.70;99.90;;;;;;6260288;22;20211;-84
2021/11/21 02:40:04;;;;;;;6.60;5.17;;;4.60;99.90;;;;;;6261615;22;20198;-84
2021/11/21 02:42:36;;;;;;;7.27;5.27;;;4.60;99.90;;;;;;6265720;22;20176;-83
2021/11/21 02:45:11;;;;;;;7.50;5.10;;;4.60;99.90;;;;;;6260833;23;20179;-83
2021/11/21 02:47:43;;;;;;;9.63;5.27;;;4.60;99.90;;;;;;6264557;23;20178;-85
2021/11/21 02:50:17;;;;;;;8.77;5.67;;;4.50;99.90;;;;;;6268610;22;20175;-85
2021/11/21 02:52:53;;;;;;;8.63;5.60;;;4.50;99.90;;;;;;6268036;22;20171;-84
2021/11/21 02:55:29;;;;;;;10.23;5.60;;;4.50;99.90;;;;;;6268777;22;20220;-85
2021/11/21 02:58:02;;;;;;;7.90;5.60;;;4.40;99.90;;;;;;6270336;22;20191;-85
2021/11/21 03:00:36;;;;;;;10.67;5.70;;;4.40;99.90;;;;;;6268737;23;20218;-84
2021/11/21 03:03:09;;;;;;;9.80;5.33;;;4.30;99.90;;;;;;6268361;22;20688;-85
2021/11/21 03:05:42;;;;;;;8.73;5.40;;;4.30;99.90;;;;;;6267577;23;20190;-84
2021/11/21 03:08:16;;;;;;;8.90;5.60;;;4.30;99.90;;;;;;6268415;23;20168;-84
2021/11/21 03:10:48;;;;;;;11.43;6.00;;;4.30;99.90;;;;;;6262095;23;20240;-84
2021/11/21 03:13:20;;;;;;;10.90;6.87;;;4.30;99.90;;;;;;6263839;23;20171;-84
2021/11/21 03:15:53;;;;;;;9.10;6.77;;;4.40;99.90;;;;;;6265492;22;20210;-84
2021/11/21 03:18:25;;;;;;;10.73;6.20;;;4.40;99.90;;;;;;6266288;22;20230;-85
2021/11/21 03:20:58;;;;;;;9.00;6.00;;;4.40;99.90;;;;;;6266377;22;20680;-84
2021/11/21 03:23:32;;;;;;;10.07;6.60;;;4.40;99.90;;;;;;6264851;23;20194;-85
2021/11/21 03:26:06;;;;;;;12.07;6.33;;;4.40;99.90;;;;;;6265108;23;20214;-85
2021/11/21 03:28:41;;;;;;;9.57;6.33;;;4.50;99.90;;;;;;6250571;23;20178;-85
2021/11/21 03:31:13;;;;;;;9.50;6.37;;;4.50;99.90;;;;;;6258223;23;20226;-85
2021/11/21 03:33:46;;;;;;;11.73;6.90;;;4.50;99.90;;;;;;6259917;22;20235;-83
2021/11/21 03:36:18;;;;;;;11.57;6.37;;;4.60;99.90;;;;;;6264173;22;20172;-85
2021/11/21 03:38:53;;;;;;;10.90;7.13;;;4.60;99.90;;;;;;6256728;22;20202;-86
2021/11/21 03:41:28;;;;;;;8.43;6.47;;;4.60;99.90;;;;;;6255868;23;20172;-86
2021/11/21 03:44:03;;;;;;;10.63;6.13;;;4.70;99.90;;;;;;6285000;22;20199;-84
2021/11/21 03:46:36;;;;;;;12.03;7.00;;;4.70;99.90;;;;;;6264492;23;20175;-85
2021/11/21 03:49:10;;;;;;;9.13;6.83;;;4.80;99.90;;;;;;6268858;22;20172;-85
2021/11/21 03:51:44;;;;;;;10.40;7.07;;;4.80;99.90;;;;;;6241511;23;20534;-85
2021/11/21 03:54:20;;;;;;;13.10;8.93;;;4.90;99.90;;;;;;6264724;22;20188;-85
2021/11/21 03:56:53;;;;;;;15.97;10.27;;;4.90;99.90;;;;;;6268609;22;20216;-82
2021/11/21 03:59:24;;;;;;;15.83;11.83;;;4.90;99.90;;;;;;6262255;23;20263;-83
2021/11/21 04:01:58;;;;;;;21.30;12.67;;;4.90;99.90;;;;;;6250905;23;20209;-85
2021/11/21 04:04:32;;;;;;;17.10;12.33;;;5.00;99.90;;;;;;6266187;22;20179;-83
2021/11/21 04:07:06;;;;;;;17.57;12.57;;;5.00;99.90;;;;;;6262439;22;20171;-83
2021/11/21 04:09:40;;;;;;;20.27;13.47;;;4.90;99.90;;;;;;6252420;22;20176;-84
2021/11/21 04:12:12;;;;;;;18.07;11.53;;;4.90;99.90;;;;;;6257075;22;20164;-85
2021/11/21 04:14:45;;;;;;;18.13;13.07;;;4.90;99.90;;;;;;6247932;22;20195;-85
2021/11/21 04:17:16;;;;;;;14.57;11.27;;;4.90;99.90;;;;;;6249014;22;20493;-84
2021/11/21 04:19:48;;;;;;;18.67;12.30;;;5.00;99.90;;;;;;6251587;22;20269;-83
2021/11/21 04:22:19;;;;;;;17.93;12.17;;;5.00;99.90;;;;;;6252336;22;20287;-84
2021/11/21 04:24:53;;;;;;;17.03;10.60;;;5.00;99.90;;;;;;6249098;22;20485;-84
2021/11/21 04:27:26;;;;;;;14.87;9.30;;;4.90;99.90;;;;;;6271449;22;20160;-84
2021/11/21 04:29:59;;;;;;;13.27;10.00;;;4.90;99.90;;;;;;6248319;22;20168;-84
2021/11/21 04:32:31;;;;;;;13.93;9.93;;;4.80;99.90;;;;;;6248207;22;20187;-85
2021/11/21 04:35:03;;;;;;;14.77;9.50;;;4.90;99.90;;;;;;6248133;22;20176;-86
2021/11/21 04:37:35;;;;;;;13.23;9.00;;;4.90;99.90;;;;;;6249027;22;20194;-84
2021/11/21 04:40:12;;;;;;;10.03;8.10;;;5.00;99.90;;;;;;6248664;23;20306;-84
2021/11/21 04:42:44;;;;;;;11.77;8.67;;;5.10;99.90;;;;;;6253369;23;20218;-85
2021/11/21 04:45:16;;;;;;;12.03;8.17;;;5.10;99.90;;;;;;6270754;22;20615;-84
2021/11/21 04:47:49;;;;;;;9.23;7.70;;;5.10;99.90;;;;;;6248919;23;20440;-85
2021/11/21 04:50:21;;;;;;;12.53;8.00;;;5.10;99.90;;;;;;6248478;23;20171;-85
2021/11/21 04:52:53;;;;;;;9.93;7.73;;;5.20;99.90;;;;;;6249008;22;20479;-84
2021/11/21 04:55:27;;;;;;;9.67;6.90;;;5.20;99.90;;;;;;6248228;23;20171;-85
2021/11/21 04:57:58;;;;;;;11.03;8.13;;;5.20;99.90;;;;;;6259029;22;20227;-86
2021/11/21 05:00:31;;;;;;;10.43;7.40;;;5.10;99.90;;;;;;6256836;22;20172;-85
2021/11/21 05:03:03;;;;;;;10.53;7.53;;;5.10;99.90;;;;;;6249621;23;20168;-85
2021/11/21 05:05:35;;;;;;;11.83;7.63;;;5.20;99.90;;;;;;6248291;22;20175;-84
2021/11/21 05:08:09;;;;;;;13.20;8.23;;;5.20;99.90;;;;;;6258435;22;20159;-83
2021/11/21 05:10:51;;;;;;;11.67;7.73;;;5.20;99.90;;;;;;6239134;23;20176;-83
2021/11/21 05:13:22;;;;;;;9.97;7.03;;;5.20;99.90;;;;;;6241759;23;20220;-85
2021/11/21 05:15:54;;;;;;;9.67;7.47;;;5.20;99.90;;;;;;6234836;23;20255;-85
2021/11/21 05:18:27;;;;;;;12.07;8.17;;;5.30;99.90;;;;;;6230989;23;20256;-85
2021/11/21 05:20:58;;;;;;;11.73;8.03;;;5.30;99.90;;;;;;6233432;23;20228;-86
2021/11/21 05:23:30;;;;;;;12.87;8.43;;;5.30;99.90;;;;;;6238650;23;20223;-84
2021/11/21 05:26:04;;;;;;;14.53;9.40;;;5.30;99.90;;;;;;6234610;23;20169;-86
2021/11/21 05:28:36;;;;;;;13.07;8.40;;;5.20;99.90;;;;;;6230545;23;20259;-84
2021/11/21 05:31:07;;;;;;;13.37;8.87;;;5.20;99.90;;;;;;6232728;23;20486;-85
2021/11/21 05:33:39;;;;;;;12.07;8.50;;;5.20;99.90;;;;;;6226314;23;20179;-85
2021/11/21 05:36:11;;;;;;;13.70;8.70;;;5.10;99.90;;;;;;6217924;23;20177;-86
2021/11/21 05:38:43;;;;;;;14.50;8.43;;;5.20;99.90;;;;;;6192604;23;20226;-85
2021/11/21 05:41:18;;;;;;;14.20;8.17;;;5.20;99.90;;;;;;6218858;23;20220;-85
2021/11/21 05:43:50;;;;;;;12.53;8.00;;;5.20;99.90;;;;;;6230052;23;20171;-86
2021/11/21 05:46:22;;;;;;;10.73;7.60;;;5.20;99.90;;;;;;6233115;23;20169;-83
2021/11/21 05:48:54;;;;;;;11.77;7.70;;;5.20;99.90;;;;;;6220839;23;20164;-86
2021/11/21 05:51:25;;;;;;;12.50;6.77;;;5.20;99.90;;;;;;6219453;23;20521;-84
2021/11/21 05:53:57;;;;;;;11.53;7.10;;;5.20;99.90;;;;;;6217456;23;20184;-85
2021/11/21 05:56:32;;;;;;;12.10;6.60;;;5.20;99.90;;;;;;6218373;23;20181;-84
2021/11/21 05:59:04;;;;;;;10.93;7.20;;;5.20;99.90;;;;;;6222206;23;20192;-84
2021/11/21 06:01:36;;;;;;;11.30;6.87;;;5.20;99.90;;;;;;6221561;23;20264;-83
2021/11/21 06:04:08;;;;;;;10.57;7.07;;;5.20;99.90;;;;;;6217710;23;20211;-85
2021/11/21 06:06:40;;;;;;;12.13;7.83;;;5.20;99.90;;;;;;6219116;23;20184;-85
2021/11/21 06:09:12;;;;;;;8.90;6.77;;;5.20;99.90;;;;;;6209071;23;20188;-83
2021/11/21 06:11:45;;;;;;;11.27;6.97;;;5.20;99.90;;;;;;6201315;23;20192;-84
2021/11/21 06:14:16;;;;;;;9.10;7.03;;;5.20;99.90;;;;;;6189076;23;20460;-85
2021/11/21 06:16:48;;;;;;;10.80;7.13;;;5.20;99.90;;;;;;6170304;23;20223;-85
2021/11/21 06:19:20;;;;;;;10.67;6.97;;;5.20;99.90;;;;;;6188930;23;20467;-84
2021/11/21 06:21:51;;;;;;;10.97;6.80;;;5.20;99.90;;;;;;6189358;23;20472;-85
2021/11/21 06:24:23;;;;;;;11.47;6.97;;;5.30;99.90;;;;;;6188426;23;20177;-85
2021/11/21 06:27:00;;;;;;;11.60;6.87;;;5.20;99.90;;;;;;6187846;23;20184;-85
2021/11/21 06:29:32;;;;;;;10.17;6.80;;;5.20;99.90;;;;;;6189420;23;20580;-83
2021/11/21 06:32:03;;;;;;;9.07;6.73;;;5.20;99.90;;;;;;6188753;23;20248;-85
2021/11/21 06:34:37;;;;;;;11.80;6.80;;;5.20;99.90;;;;;;6189118;23;20177;-86
2021/11/21 06:37:10;;;;;;;9.37;6.50;;;5.20;99.90;;;;;;6187939;23;20181;-85
2021/11/21 06:39:43;;;;;;;12.13;7.77;;;5.20;99.90;;;;;;6191172;23;20205;-85
2021/11/21 06:42:17;;;;;;;11.80;7.13;;;5.10;99.90;;;;;;6189164;23;20177;-84
2021/11/21 06:44:48;;;;;;;8.67;6.77;;;5.10;99.90;;;;;;6189068;23;20185;-86
2021/11/21 06:47:22;;;;;;;10.83;6.90;;;5.10;99.90;;;;;;6187456;23;20228;-84
2021/11/21 06:49:57;;;;;;;8.20;6.27;;;5.10;99.90;;;;;;6188263;23;20244;-83
2021/11/21 06:52:31;;;;;;;6.97;6.07;;;5.10;99.90;;;;;;6192191;23;20159;-84
2021/11/21 06:55:03;;;;;;;8.67;6.80;;;5.10;99.90;;;;;;6191292;23;20173;-85
2021/11/21 06:57:37;;;;;;;11.27;7.37;;;5.10;99.90;;;;;;6190027;23;20573;-84
2021/11/21 07:00:11;;;;;;;8.13;7.30;;;5.10;99.90;;;;;;6189118;23;20219;-85
2021/11/21 07:02:43;;;;;;;11.23;7.57;;;5.10;99.90;;;;;;6194650;23;20187;-85
2021/11/21 07:05:15;;;;;;;11.37;7.80;;;5.10;99.90;;;;;;6190727;23;20223;-85
2021/11/21 07:07:47;;;;;;;10.17;7.43;;;5.10;99.90;;;;;;6189059;23;20244;-85
2021/11/21 07:10:18;;;;;;;12.80;8.10;;;5.20;99.90;;;;;;6189868;23;20185;-85
2021/11/21 07:12:52;;;;;;;12.67;7.37;;;5.20;99.90;;;;;;6188974;23;20637;-84
2021/11/21 07:15:24;;;;;;;11.47;8.13;;;5.20;99.90;;;;;;6187809;23;20244;-84
2021/11/21 07:17:55;;;;;;;12.97;8.77;;;5.20;99.90;;;;;;6188155;23;20520;-85
2021/11/21 07:20:27;;;;;;;17.37;9.57;;;5.10;99.90;;;;;;6188461;23;20224;-84
2021/11/21 07:22:59;;;;;;;12.57;8.90;;;5.20;99.90;;;;;;6189575;23;20169;-85
2021/11/21 07:25:31;;;;;;;12.60;8.67;;;5.10;99.90;;;;;;6189239;23;20165;-86
2021/11/21 07:28:06;;;;;;;14.97;9.67;;;5.10;99.90;;;;;;6202435;23;20161;-83
2021/11/21 07:30:38;;;;;;;14.30;9.23;;;5.00;99.90;;;;;;6211786;23;20181;-85
2021/11/21 07:33:10;;;;;;;13.73;8.00;;;5.00;99.90;;;;;;6210387;23;20181;-84
2021/11/21 07:35:41;;;;;;;11.50;7.43;;;5.00;99.90;;;;;;6193844;23;20523;-85
2021/11/21 07:38:14;;;;;;;8.90;6.23;;;5.00;99.90;;;;;;6163049;23;20166;-85
2021/11/21 07:40:46;;;;;;;7.73;5.83;;;5.00;99.90;;;;;;6188447;23;20196;-85
2021/11/21 07:43:19;;;;;;;7.97;5.30;;;5.00;99.90;;;;;;6187059;23;20177;-85
2021/11/21 07:45:52;;;;;;;10.00;5.13;;;5.00;99.90;;;;;;6185563;23;20467;-84
2021/11/21 07:48:23;;;;;;;7.73;4.20;;;5.00;99.90;;;;;;6188674;23;20173;-85
2021/11/21 07:50:55;;;;;;;7.83;4.50;;;5.00;99.90;;;;;;6188673;23;20200;-85
2021/11/21 07:53:28;;;;;;;5.17;4.07;;;5.00;99.90;;;;;;6185658;23;20177;-84
2021/11/21 07:56:00;;;;;;;5.07;3.80;;;5.00;99.90;;;;;;6186952;23;20165;-85
2021/11/21 07:58:33;;;;;;;4.03;3.67;;;5.00;99.90;;;;;;6188494;23;20628;-84
2021/11/21 08:01:06;;;;;;;6.03;3.33;;;5.00;99.90;;;;;;6186163;23;20571;-85
2021/11/21 08:03:37;;;;;;;4.47;3.50;;;4.90;99.90;;;;;;6187290;23;20173;-84
2021/11/21 08:06:09;;;;;;;5.60;3.87;;;4.90;99.90;;;;;;6186671;23;20511;-84
2021/11/21 08:08:41;;;;;;;5.57;3.77;;;4.80;99.90;;;;;;6194047;23;20177;-84
2021/11/21 08:11:13;;;;;;;4.87;3.27;;;4.80;99.90;;;;;;6191685;23;20176;-84
2021/11/21 08:13:49;;;;;;;4.37;3.40;;;4.80;99.90;;;;;;6170075;23;20169;-85
2021/11/21 08:16:21;;;;;;;4.23;3.60;;;4.80;99.90;;;;;;6194066;23;20245;-85
2021/11/21 08:18:53;;;;;;;4.23;3.37;;;4.70;99.90;;;;;;6188312;23;20184;-85
2021/11/21 08:21:24;;;;;;;6.87;3.60;;;4.70;99.90;;;;;;6188014;23;20197;-85
2021/11/21 08:23:56;;;;;;;4.60;3.37;;;4.80;99.90;;;;;;6194492;23;20562;-84
2021/11/21 08:26:30;;;;;;;6.73;3.43;;;4.70;99.90;;;;;;6187171;23;20173;-85
2021/11/21 08:29:03;;;;;;;4.50;3.20;;;4.70;99.90;;;;;;6187091;23;20484;-84
2021/11/21 08:31:56;;;;;;;3.93;3.23;;;4.70;99.90;;;;;;6188096;23;20240;-86
2021/11/21 08:34:28;;;;;;;3.77;3.10;;;4.70;99.90;;;;;;6194372;23;20248;-86
2021/11/21 08:37:02;;;;;;;4.33;2.90;;;4.70;99.90;;;;;;6199876;23;20232;-85
2021/11/21 08:39:34;;;;;;;5.73;3.20;;;4.70;99.90;;;;;;6187100;23;20180;-85
2021/11/21 08:42:06;;;;;;;3.90;3.50;;;4.70;99.90;;;;;;6186826;23;20246;-86
2021/11/21 08:44:40;;;;;;;5.53;3.40;;;4.70;99.90;;;;;;6188369;23;20183;-85
2021/11/21 08:47:12;;;;;;;4.03;3.20;;;4.70;99.90;;;;;;6187011;23;20169;-86
2021/11/21 08:49:44;;;;;;;4.60;3.20;;;4.70;99.90;;;;;;6187722;23;20561;-85
2021/11/21 08:52:16;;;;;;;5.17;3.30;;;4.60;99.90;;;;;;6187068;23;20173;-84
2021/11/21 08:54:48;;;;;;;4.87;3.23;;;4.70;99.90;;;;;;6187626;23;20284;-85
2021/11/21 08:57:20;;;;;;;4.90;3.20;;;4.70;99.90;;;;;;6185995;23;20220;-85
2021/11/21 08:59:54;;;;;;;5.57;3.30;;;4.70;99.90;;;;;;6187661;23;20165;-85
2021/11/21 09:02:25;;;;;;;4.37;3.33;;;4.70;99.90;;;;;;6186676;23;20173;-85
2021/11/21 09:04:57;;;;;;;4.90;3.40;;;4.80;99.90;;;;;;6186671;23;20237;-84
2021/11/21 09:07:29;;;;;;;4.33;3.27;;;4.80;99.90;;;;;;6161188;23;20173;-85
2021/11/21 09:10:01;;;;;;;3.43;2.60;;;4.80;99.90;;;;;;6188390;23;20637;-85
2021/11/21 09:12:32;;;;;;;4.03;3.30;;;4.80;99.90;;;;;;6187474;23;20165;-84
2021/11/21 09:15:08;;;;;;;4.60;3.30;;;4.80;99.90;;;;;;6190476;23;20173;-85
2021/11/21 09:17:40;;;;;;;6.50;3.20;;;4.80;99.90;;;;;;6187351;23;20191;-84
2021/11/21 09:20:13;;;;;;;3.75;3.30;;;4.80;99.90;;;;;;6187396;23;20188;-84
2021/11/21 09:22:44;;;;;;;4.63;3.37;;;4.80;99.90;;;;;;6188885;23;20192;-83
2021/11/21 09:25:17;;;;;;;5.80;3.47;;;4.80;99.90;;;;;;6186455;23;20172;-85
2021/11/21 09:27:48;;;;;;;3.93;2.87;;;4.80;99.90;;;;;;6187841;23;20252;-84
2021/11/21 09:30:23;;;;;;;5.13;2.90;;;4.90;99.90;;;;;;6187112;23;20255;-84
2021/11/21 09:32:55;;;;;;;4.97;2.77;;;4.80;99.90;;;;;;6187431;23;20172;-86
2021/11/21 09:35:27;;;;;;;3.70;2.97;;;4.80;99.90;;;;;;6184915;23;20576;-85
2021/11/21 09:37:58;;;;;;;3.07;2.57;;;4.90;99.90;;;;;;6187753;23;20183;-84
2021/11/21 09:40:30;;;;;;;3.77;3.00;;;4.90;99.90;;;;;;6187976;23;20172;-85
2021/11/21 09:43:03;;;;;;;3.77;2.80;;;4.90;99.90;;;;;;6189284;23;20169;-85
2021/11/21 09:45:37;;;;;;;5.60;3.27;;;5.00;99.90;;;;;;6203365;23;20177;-87
2021/11/21 09:48:08;;;;;;;4.03;3.00;;;5.00;99.90;;;;;;6208542;23;20214;-85
2021/11/21 09:50:41;;;;;;;5.60;3.20;;;4.90;99.90;;;;;;6203170;23;20309;-83
2021/11/21 09:53:15;;;;;;;3.70;2.90;;;4.80;99.90;;;;;;6187263;23;20248;-83
2021/11/21 09:55:46;;;;;;;5.17;3.17;;;4.90;99.90;;;;;;6187717;23;20562;-83
2021/11/21 09:58:18;;;;;;;3.83;2.80;;;4.80;99.90;;;;;;6188609;23;20171;-85
2021/11/21 10:00:52;;;;;;;3.87;2.60;;;4.80;99.90;;;;;;6187255;23;20205;-84
2021/11/21 10:03:24;;;;;;;3.30;2.73;;;4.80;99.90;;;;;;6187664;23;20176;-84
2021/11/21 10:06:06;;;;;;;3.37;2.43;;;4.70;99.90;;;;;;6187100;23;20166;-84
2021/11/21 10:08:51;;;;;;;2.53;2.30;;;4.60;99.90;;;;;;6187211;23;20188;-84
2021/11/21 10:11:22;;;;;;;4.30;2.73;;;4.60;99.90;;;;;;6187268;23;20224;-84
2021/11/21 10:13:55;;;;;;;3.83;2.87;;;4.60;99.90;;;;;;6187844;23;20169;-85
2021/11/21 10:16:31;;;;;;;3.03;2.27;;;4.60;99.90;;;;;;6190060;23;20177;-85
2021/11/21 10:19:04;;;;;;;3.17;2.30;;;4.60;99.90;;;;;;6187414;23;20227;-85
2021/11/21 10:21:37;;;;;;;3.03;2.20;;;4.60;99.90;;;;;;6187609;23;20193;-85
2021/11/21 10:24:24;;;;;;;4.17;2.20;;;4.60;99.90;;;;;;6186909;23;20180;-85
2021/11/21 10:27:08;;;;;;;3.10;2.00;;;4.60;99.90;;;;;;6186689;23;20208;-84
2021/11/21 10:29:41;;;;;;;2.70;2.10;;;4.60;99.90;;;;;;6188173;23;20185;-85
2021/11/21 10:32:19;;;;;;;2.73;2.00;;;4.50;99.90;;;;;;6190274;23;20169;-84
2021/11/21 10:34:55;;;;;;;2.50;1.80;;;4.60;99.90;;;;;;6190261;23;20493;-84
2021/11/21 10:37:33;;;;;;;2.20;1.80;;;4.60;99.90;;;;;;6188884;23;20537;-86
2021/11/21 10:40:10;;;;;;;5.30;2.20;;;4.50;99.90;;;;;;6190079;23;20177;-84
2021/11/21 10:42:44;;;;;;;2.13;1.70;;;4.50;99.90;;;;;;6189122;23;20204;-85
2021/11/21 10:45:23;;;;;;;2.43;1.80;;;4.50;99.90;;;;;;6189300;23;20171;-84
2021/11/21 10:47:58;;;;;;;2.57;1.90;;;4.50;99.90;;;;;;6189282;23;20555;-82
2021/11/21 10:50:31;;;;;;;3.53;1.83;;;4.40;99.90;;;;;;6190110;23;20161;-85
2021/11/21 10:53:06;;;;;;;3.47;1.70;;;4.50;99.90;;;;;;6199721;23;20164;-86
2021/11/21 10:55:39;;;;;;;2.47;1.80;;;4.40;99.90;;;;;;6208885;23;20228;-84
2021/11/21 10:58:15;;;;;;;1.47;1.37;;;4.30;99.90;;;;;;6210584;23;20232;-84
2021/11/21 11:00:59;;;;;;;6.13;2.13;;;4.20;99.90;;;;;;6199183;23;20169;-85
2021/11/21 11:03:36;;;;;;;2.13;1.70;;;4.10;99.90;;;;;;6193253;23;20559;-86
2021/11/21 11:06:27;;;;;;;3.80;1.70;;;4.00;99.90;;;;;;6190754;23;20637;-85
2021/11/21 11:09:16;;;;;;;2.30;2.00;;;3.90;99.90;;;;;;6189466;23;20295;-84
2021/11/21 11:11:48;;;;;;;3.37;2.33;;;3.80;99.90;;;;;;6188502;23;20252;-84
2021/11/21 11:14:22;;;;;;;2.70;1.87;;;3.70;99.90;;;;;;6188796;23;20166;-85
2021/11/21 11:16:57;;;;;;;3.20;2.07;;;3.70;99.90;;;;;;6188092;23;20183;-85
2021/11/21 11:19:33;;;;;;;3.73;2.20;;;3.70;99.90;;;;;;6189347;23;20185;-85
2021/11/21 11:22:07;;;;;;;3.17;1.80;;;3.60;99.90;;;;;;6188612;23;20200;-86
2021/11/21 11:24:42;;;;;;;3.57;2.10;;;3.60;99.90;;;;;;6188897;23;20236;-85
2021/11/21 11:27:25;;;;;;;2.23;1.87;;;3.50;99.90;;;;;;6187784;23;20502;-85
2021/11/21 11:29:57;;;;;;;2.70;1.80;;;3.50;99.90;;;;;;6185163;23;20506;-85
2021/11/21 11:32:35;;;;;;;2.67;2.10;;;3.40;99.90;;;;;;6188112;23;20638;-85
2021/11/21 11:35:31;;;;;;;5.10;2.10;;;3.40;99.90;;;;;;6187754;23;20251;-86
2021/11/21 11:38:15;;;;;;;2.97;1.97;;;3.30;99.90;;;;;;6184634;23;20352;-85
2021/11/21 11:43:43;;;;;;;4.37;1.93;;;3.10;99.90;;;;;;6185055;23;20241;-86
2021/11/21 11:46:28;;;;;;;2.07;1.67;;;3.10;99.90;;;;;;6188400;23;20238;-85
2021/11/21 11:49:03;;;;;;;2.17;1.80;;;3.00;99.90;;;;;;6188686;23;20553;-86
2021/11/21 11:51:58;;;;;;;1.70;1.60;;;3.00;99.90;;;;;;6188893;23;20169;-85
2021/11/21 11:54:31;;;;;;;2.23;1.60;;;3.00;99.90;;;;;;6185029;23;20196;-85
2021/11/21 11:57:07;;;;;;;2.50;1.80;;;2.90;99.90;;;;;;6188562;23;20184;-86
2021/11/21 11:59:41;;;;;;;2.30;1.77;;;2.90;99.90;;;;;;6190134;23;20197;-86
2021/11/21 12:02:15;;;;;;;2.70;1.90;;;2.90;99.90;;;;;;6193573;23;20193;-85
2021/11/21 12:04:59;;;;;;;2.03;1.60;;;2.80;99.90;;;;;;6197082;23;20231;-86
2021/11/21 12:07:45;;;;;;;2.90;1.60;;;2.80;99.90;;;;;;6195465;23;20169;-86
2021/11/21 12:10:24;;;;;;;2.23;1.80;;;2.80;99.90;;;;;;6193220;23;20185;-86
2021/11/21 12:13:21;;;;;;;2.80;2.07;;;2.80;99.90;;;;;;6190846;23;20228;-86
2021/11/21 12:15:58;;;;;;;3.83;1.77;;;2.70;99.90;;;;;;6186863;23;20173;-85
2021/11/21 12:18:55;;;;;;;2.50;2.00;;;2.60;99.90;;;;;;6188157;23;20166;-87
2021/11/21 12:21:44;;;;;;;2.23;2.00;;;2.60;99.90;;;;;;6188112;23;20253;-87
2021/11/21 12:24:46;;;;;;;3.43;1.70;;;2.50;99.90;;;;;;6187982;23;20175;-85
2021/11/21 12:27:25;;;;;;;3.53;1.90;;;2.40;99.90;;;;;;6187452;23;20175;-87
2021/11/21 12:30:07;;;;;;;2.43;1.63;;;2.40;99.90;;;;;;6187459;23;20184;-86
2021/11/21 12:32:47;;;;;;;2.73;1.93;;;2.40;99.90;;;;;;6188651;23;20630;-87
2021/11/21 12:35:28;;;;;;;2.13;1.80;;;2.40;99.90;;;;;;6187040;23;20173;-86
2021/11/21 12:38:01;;;;;;;3.40;2.13;;;2.40;99.90;;;;;;6162517;23;20175;-86
2021/11/21 12:40:38;;;;;;;3.03;2.10;;;2.40;99.90;;;;;;6188042;23;20185;-86
2021/11/21 12:43:12;;;;;;;3.63;1.97;;;2.30;99.90;;;;;;6190859;23;20220;-86
2021/11/21 12:45:46;;;;;;;2.80;2.20;;;2.20;99.90;;;;;;6188080;23;20171;-86
2021/11/21 12:48:21;;;;;;;5.10;2.30;;;2.30;99.90;;;;;;6187192;23;20174;-87
2021/11/21 12:50:54;;;;;;;4.90;2.43;;;2.20;99.90;;;;;;6188516;23;20169;-86
2021/11/21 12:53:28;;;;;;;3.83;2.40;;;2.20;99.90;;;;;;6188010;23;20225;-87
2021/11/21 12:56:06;;;;;;;2.83;2.20;;;2.10;99.90;;;;;;6186508;23;20176;-86
2021/11/21 12:58:39;;;;;;;3.83;2.20;;;2.10;99.90;;;;;;6162919;23;20169;-86
2021/11/21 13:01:12;;;;;;;3.00;2.50;;;2.10;99.90;;;;;;6189425;23;20231;-86
2021/11/21 13:03:45;;;;;;;5.93;2.90;;;2.20;99.90;;;;;;6187692;23;20220;-86
2021/11/21 13:06:19;;;;;;;3.30;2.47;;;2.20;99.90;;;;;;6186932;23;20511;-86
2021/11/21 13:08:52;;;;;;;3.10;2.67;;;2.20;99.90;;;;;;6188195;23;20185;-86
2021/11/21 13:11:27;;;;;;;4.13;2.53;;;2.20;99.90;;;;;;6191306;23;20248;-85
2021/11/21 13:13:59;;;;;;;4.83;2.90;;;2.20;99.90;;;;;;6188587;23;20167;-85
2021/11/21 13:16:35;;;;;;;3.53;2.70;;;2.20;99.90;;;;;;6187114;23;20658;-86
2021/11/21 13:19:08;;;;;;;3.23;2.90;;;2.20;99.90;;;;;;6187179;23;20164;-84
2021/11/21 13:21:41;;;;;;;3.83;2.83;;;2.10;99.90;;;;;;6188092;23;20248;-88
2021/11/21 13:24:14;;;;;;;5.83;2.70;;;2.10;99.90;;;;;;6161261;23;20528;-86
2021/11/21 13:26:47;;;;;;;3.87;3.07;;;2.10;99.90;;;;;;6186829;23;20252;-86
2021/11/21 13:29:21;;;;;;;4.27;3.20;;;2.20;99.90;;;;;;6188215;23;20169;-85
2021/11/21 13:31:58;;;;;;;5.33;3.10;;;2.10;99.90;;;;;;6185838;23;20522;-86
2021/11/21 13:34:32;;;;;;;5.33;3.23;;;2.10;99.90;;;;;;6188331;23;20212;-85
2021/11/21 13:37:05;;;;;;;3.90;3.03;;;2.00;99.90;;;;;;6187160;23;20177;-86
2021/11/21 13:39:38;;;;;;;4.20;2.90;;;2.10;99.90;;;;;;6187880;23;20256;-85
2021/11/21 13:42:13;;;;;;;3.60;2.80;;;2.00;99.90;;;;;;6187109;23;20505;-84
2021/11/21 13:44:47;;;;;;;3.70;3.27;;;2.00;99.90;;;;;;6188664;23;20202;-87